createdAt,value
2022-12-15T00:01:49.646Z,87.16
2022-12-15T00:04:06.791Z,87.24
2022-12-15T00:06:23.864Z,87.09
2022-12-15T00:08:41.139Z,87.19
2022-12-15T00:10:58.279Z,87.19
2022-12-15T00:13:15.345Z,86.96
2022-12-15T00:15:32.675Z,87.04
2022-12-15T00:17:49.901Z,86.85
2022-12-15T00:20:06.944Z,86.78
2022-12-15T00:22:23.942Z,86.79
2022-12-15T00:24:40.828Z,86.88
2022-12-15T00:26:57.774Z,86.54
2022-12-15T00:29:14.851Z,86.78
2022-12-15T00:31:32.010Z,86.82
2022-12-15T00:33:48.998Z,86.76
2022-12-15T00:36:06.067Z,86.22
2022-12-15T00:38:23.114Z,86.77
2022-12-15T00:40:40.449Z,86.34
2022-12-15T00:42:57.525Z,86.97
2022-12-15T00:45:14.628Z,86.58
2022-12-15T00:47:31.567Z,86.61
2022-12-15T00:49:49.863Z,86.88
2022-12-15T00:52:07.786Z,86.46
2022-12-15T00:54:24.740Z,86.04
2022-12-15T00:56:41.737Z,85.82
2022-12-15T00:58:58.868Z,85.61
2022-12-15T01:01:15.894Z,85.88
2022-12-15T01:03:33.537Z,85.64
2022-12-15T01:05:51.152Z,85.85
2022-12-15T01:08:08.226Z,85.53
2022-12-15T01:10:25.397Z,85.88
2022-12-15T01:12:42.483Z,85.79
2022-12-15T01:14:59.520Z,85.72
2022-12-15T01:17:16.463Z,85.52
2022-12-15T01:19:33.518Z,85.45
2022-12-15T01:21:50.735Z,85.58
2022-12-15T01:24:08.062Z,85.44
2022-12-15T01:26:25.149Z,85.34
2022-12-15T01:28:42.541Z,84.87
2022-12-15T01:30:59.836Z,84.97
2022-12-15T01:33:16.827Z,84.69
2022-12-15T01:35:33.911Z,84.86
2022-12-15T01:37:51.201Z,84.80
2022-12-15T01:40:08.267Z,84.27
2022-12-15T01:42:25.311Z,84.43
2022-12-15T01:44:42.667Z,84.61
2022-12-15T01:46:59.942Z,84.29
2022-12-15T01:49:16.930Z,84.32
2022-12-15T01:51:34.322Z,84.28
2022-12-15T01:53:52.286Z,83.97
2022-12-15T01:56:10.054Z,83.97
2022-12-15T01:58:28.310Z,84.19
2022-12-15T02:00:45.670Z,83.97
2022-12-15T02:03:03.164Z,84.03
2022-12-15T02:05:21.531Z,83.95
2022-12-15T02:07:38.635Z,83.80
2022-12-15T02:09:55.542Z,83.93
2022-12-15T02:12:13.529Z,83.73
2022-12-15T02:14:30.628Z,83.67
2022-12-15T02:16:47.624Z,83.74
2022-12-15T02:19:04.979Z,83.39
2022-12-15T02:21:22.242Z,83.02
2022-12-15T02:23:40.319Z,83.18
2022-12-15T02:25:57.560Z,83.11
2022-12-15T02:28:14.477Z,82.92
2022-12-15T02:30:33.001Z,83.00
2022-12-15T02:32:49.920Z,83.50
2022-12-15T02:35:06.879Z,83.52
2022-12-15T02:37:23.857Z,83.30
2022-12-15T02:39:41.164Z,83.22
2022-12-15T02:41:58.247Z,82.70
2022-12-15T02:44:15.301Z,82.71
2022-12-15T02:46:32.670Z,82.51
2022-12-15T02:48:49.668Z,82.72
2022-12-15T02:51:06.654Z,82.52
2022-12-15T02:53:24.013Z,82.82
2022-12-15T02:55:41.409Z,83.10
2022-12-15T02:57:58.319Z,83.09
2022-12-15T03:00:15.250Z,82.74
2022-12-15T03:02:32.312Z,82.96
2022-12-15T03:04:49.667Z,83.04
2022-12-15T03:07:06.680Z,83.30
2022-12-15T03:09:23.800Z,83.42
2022-12-15T03:11:41.877Z,82.77
2022-12-15T03:13:58.926Z,82.42
2022-12-15T03:16:16.018Z,82.21
2022-12-15T03:18:33.046Z,81.71
2022-12-15T03:20:49.879Z,81.76
2022-12-15T03:23:06.850Z,81.87
2022-12-15T03:30:21.141Z,82.47
2022-12-15T03:32:38.222Z,81.72
2022-12-15T03:34:55.145Z,81.75
2022-12-15T03:37:12.204Z,81.67
2022-12-15T03:39:29.212Z,81.62
2022-12-15T03:41:46.191Z,81.92
2022-12-15T03:44:04.471Z,81.88
2022-12-15T03:46:21.645Z,82.29
2022-12-15T03:48:39.715Z,81.95
2022-12-15T03:50:56.797Z,81.94
2022-12-15T03:53:14.103Z,81.80
2022-12-15T03:55:31.449Z,81.58
2022-12-15T03:57:48.505Z,81.48
2022-12-15T04:00:05.512Z,81.53
2022-12-15T04:02:22.531Z,81.24
2022-12-15T04:04:39.645Z,81.27
2022-12-15T04:06:56.954Z,81.45
2022-12-15T04:09:14.247Z,81.61
2022-12-15T04:11:32.251Z,81.78
2022-12-15T04:13:49.525Z,81.66
2022-12-15T04:16:07.827Z,81.72
2022-12-15T04:18:25.057Z,81.82
2022-12-15T04:20:41.966Z,81.49
2022-12-15T04:22:59.266Z,81.54
2022-12-15T04:25:16.584Z,81.49
2022-12-15T04:27:33.914Z,81.64
2022-12-15T04:29:50.963Z,81.55
2022-12-15T04:32:08.020Z,81.55
2022-12-15T04:34:26.374Z,81.64
2022-12-15T04:36:43.659Z,81.65
2022-12-15T04:39:00.910Z,80.82
2022-12-15T04:41:18.131Z,81.15
2022-12-15T04:43:35.193Z,80.95
2022-12-15T04:45:54.075Z,80.77
2022-12-15T04:48:11.127Z,80.50
2022-12-15T04:50:29.202Z,80.86
2022-12-15T04:52:46.550Z,81.15
2022-12-15T04:55:04.473Z,80.51
2022-12-15T04:57:21.770Z,80.30
2022-12-15T04:59:38.810Z,80.39
2022-12-15T05:01:56.219Z,80.70
2022-12-15T05:04:13.421Z,80.98
2022-12-15T05:06:30.828Z,81.00
2022-12-15T05:08:47.780Z,81.34
2022-12-15T05:11:07.617Z,81.21
2022-12-15T05:13:25.514Z,81.58
2022-12-15T05:15:42.809Z,81.08
2022-12-15T05:17:59.837Z,80.71
2022-12-15T05:20:17.036Z,80.57
2022-12-15T05:22:34.088Z,80.47
2022-12-15T05:24:51.384Z,80.72
2022-12-15T05:27:08.331Z,80.37
2022-12-15T05:29:26.613Z,80.29
2022-12-15T05:31:43.904Z,80.23
2022-12-15T05:34:05.067Z,80.09
2022-12-15T05:36:22.861Z,80.10
2022-12-15T05:38:39.970Z,80.20
2022-12-15T05:40:56.955Z,79.89
2022-12-15T05:43:13.997Z,80.07
2022-12-15T05:45:31.289Z,80.68
2022-12-15T05:47:48.426Z,80.61
2022-12-15T05:50:05.389Z,80.58
2022-12-15T05:52:22.482Z,80.60
2022-12-15T05:54:40.759Z,80.33
2022-12-15T05:56:58.093Z,80.09
2022-12-15T05:59:15.127Z,80.23
2022-12-15T06:01:32.144Z,80.33
2022-12-15T06:03:49.421Z,80.17
2022-12-15T06:06:06.778Z,80.03
2022-12-15T06:08:24.131Z,80.57
2022-12-15T06:10:41.115Z,80.39
2022-12-15T06:12:59.483Z,80.58
2022-12-15T06:15:16.440Z,80.17
2022-12-15T06:17:34.311Z,80.02
2022-12-15T06:19:51.401Z,79.62
2022-12-15T06:22:08.722Z,79.41
2022-12-15T06:24:27.174Z,79.90
2022-12-15T06:26:44.500Z,80.38
2022-12-15T06:29:01.441Z,79.54
2022-12-15T06:31:18.758Z,79.70
2022-12-15T06:33:37.101Z,80.10
2022-12-15T06:35:54.134Z,79.91
2022-12-15T06:38:11.236Z,80.77
2022-12-15T06:40:31.000Z,80.66
2022-12-15T06:42:50.723Z,80.74
2022-12-15T06:45:08.021Z,80.38
2022-12-15T06:47:25.286Z,80.62
2022-12-15T06:49:42.354Z,80.25
2022-12-15T06:51:59.299Z,80.51
2022-12-15T06:54:16.382Z,80.72
2022-12-15T06:56:34.695Z,80.96
2022-12-15T06:58:52.109Z,80.46
2022-12-15T07:01:09.395Z,80.31
2022-12-15T07:03:26.881Z,80.56
2022-12-15T07:05:44.027Z,80.31
2022-12-15T07:08:01.230Z,80.04
2022-12-15T07:10:18.670Z,80.09
2022-12-15T07:12:35.565Z,80.11
2022-12-15T07:14:53.671Z,80.77
2022-12-15T07:17:11.155Z,80.91
2022-12-15T07:19:28.313Z,80.62
2022-12-15T07:21:45.545Z,80.03
2022-12-15T07:24:03.080Z,80.47
2022-12-15T07:26:20.509Z,80.12
2022-12-15T07:28:37.593Z,80.73
2022-12-15T07:30:54.493Z,80.78
2022-12-15T07:33:11.570Z,80.63
2022-12-15T07:35:28.844Z,80.70
2022-12-15T07:37:45.745Z,81.28
2022-12-15T07:40:02.757Z,80.75
2022-12-15T07:42:19.825Z,81.42
2022-12-15T07:44:37.075Z,82.06
2022-12-15T07:46:54.020Z,81.80
2022-12-15T07:49:10.864Z,82.07
2022-12-15T07:51:27.837Z,82.27
2022-12-15T07:53:45.741Z,82.55
2022-12-15T07:56:08.073Z,82.38
2022-12-15T07:58:25.848Z,82.75
2022-12-15T08:00:48.668Z,82.78
2022-12-15T08:03:06.380Z,82.51
2022-12-15T08:05:42.474Z,82.95
2022-12-15T08:07:59.571Z,82.73
2022-12-15T08:10:16.478Z,82.70
2022-12-15T08:12:33.728Z,82.87
2022-12-15T08:14:50.760Z,82.13
2022-12-15T08:17:08.066Z,82.17
2022-12-15T08:19:25.015Z,81.97
2022-12-15T08:21:42.327Z,81.97
2022-12-15T08:24:01.194Z,81.98
2022-12-15T08:26:18.236Z,81.95
2022-12-15T08:28:35.165Z,81.29
2022-12-15T08:30:52.111Z,81.66
2022-12-15T08:33:10.380Z,81.99
2022-12-15T08:35:55.094Z,81.89
2022-12-15T08:38:05.843Z,81.78
2022-12-15T08:40:23.324Z,81.61
2022-12-15T08:42:40.667Z,81.70
2022-12-15T08:44:57.549Z,82.48
2022-12-15T08:47:14.531Z,82.63
2022-12-15T08:49:32.782Z,83.08
2022-12-15T08:51:50.102Z,82.61
2022-12-15T08:54:07.634Z,82.79
2022-12-15T08:56:24.916Z,83.04
2022-12-15T08:58:42.159Z,83.56
2022-12-15T09:00:59.197Z,83.86
2022-12-15T09:03:16.324Z,83.89
2022-12-15T09:05:33.347Z,84.07
2022-12-15T09:07:51.303Z,84.12
2022-12-15T09:10:08.339Z,84.13
2022-12-15T09:12:26.556Z,84.23
2022-12-15T09:14:43.403Z,84.50
2022-12-15T09:17:00.445Z,84.85
2022-12-15T09:19:17.442Z,85.38
2022-12-15T09:21:35.466Z,85.45
2022-12-15T09:23:52.552Z,85.28
2022-12-15T09:26:10.778Z,85.78
2022-12-15T09:28:28.936Z,86.89
2022-12-15T09:30:47.252Z,86.63
2022-12-15T09:33:04.239Z,86.80
2022-12-15T09:35:21.197Z,86.92
2022-12-15T09:37:38.433Z,87.15
2022-12-15T09:39:55.473Z,87.13
2022-12-15T09:42:12.496Z,87.23
2022-12-15T09:44:29.809Z,87.26
2022-12-15T09:46:49.874Z,87.41
2022-12-15T09:49:07.448Z,87.34
2022-12-15T09:51:24.841Z,87.10
2022-12-15T09:53:57.969Z,87.58
2022-12-15T09:56:15.503Z,87.58
2022-12-15T09:58:32.669Z,87.48
2022-12-15T10:00:52.643Z,87.61
2022-12-15T10:03:11.134Z,87.54
2022-12-15T10:05:50.001Z,87.44
2022-12-15T10:08:05.659Z,86.79
2022-12-15T10:10:22.677Z,86.48
2022-12-15T10:12:46.860Z,86.82
2022-12-15T10:15:12.768Z,87.08
2022-12-15T10:17:30.168Z,87.21
2022-12-15T10:22:24.696Z,87.37
2022-12-15T10:27:18.631Z,87.38
2022-12-15T10:29:35.745Z,87.55
2022-12-15T10:31:52.869Z,87.80
2022-12-15T10:34:11.973Z,87.64
2022-12-15T10:36:29.041Z,87.25
2022-12-15T10:38:46.065Z,87.54
2022-12-15T10:41:07.685Z,87.52
2022-12-15T10:43:25.980Z,87.75
2022-12-15T10:45:42.951Z,87.54
2022-12-15T10:47:59.991Z,87.25
2022-12-15T10:50:24.082Z,86.89
2022-12-15T10:52:41.668Z,87.13
2022-12-15T10:54:59.728Z,86.56
2022-12-15T10:57:17.021Z,86.65
2022-12-15T10:59:34.370Z,86.82
2022-12-15T11:01:52.621Z,87.35
2022-12-15T11:04:10.815Z,87.00
2022-12-15T11:06:28.220Z,86.64
2022-12-15T11:08:45.579Z,86.30
2022-12-15T11:11:07.668Z,86.43
2022-12-15T11:13:28.441Z,86.39
2022-12-15T11:15:50.758Z,86.12
2022-12-15T11:18:07.977Z,85.82
2022-12-15T11:20:25.130Z,86.37
2022-12-15T11:22:43.051Z,86.19
2022-12-15T11:25:00.011Z,85.72
2022-12-15T11:27:17.061Z,85.51
2022-12-15T11:29:34.076Z,85.15
2022-12-15T11:31:51.197Z,84.52
2022-12-15T11:34:08.208Z,83.90
2022-12-15T11:36:26.481Z,83.78
2022-12-15T11:38:43.860Z,84.45
2022-12-15T11:41:01.206Z,84.25
2022-12-15T11:43:18.102Z,84.39
2022-12-15T11:45:35.083Z,84.77
2022-12-15T11:47:52.397Z,84.69
2022-12-15T11:50:09.500Z,84.45
2022-12-15T11:52:26.561Z,84.02
2022-12-15T11:54:44.877Z,84.01
2022-12-15T11:57:02.451Z,83.31
2022-12-15T11:59:19.793Z,83.87
2022-12-15T12:01:36.886Z,84.03
2022-12-15T12:03:54.035Z,83.70
2022-12-15T12:06:11.145Z,83.78
2022-12-15T12:08:28.903Z,83.41
2022-12-15T12:10:46.536Z,83.76
2022-12-15T12:13:05.538Z,83.89
2022-12-15T12:15:22.947Z,83.30
2022-12-15T12:17:39.948Z,83.35
2022-12-15T12:19:57.782Z,83.39
2022-12-15T12:22:14.737Z,83.28
2022-12-15T12:24:31.732Z,82.99
2022-12-15T12:26:50.098Z,83.90
2022-12-15T12:29:07.333Z,82.42
2022-12-15T12:31:24.479Z,83.57
2022-12-15T12:33:41.626Z,82.60
2022-12-15T12:35:58.678Z,82.56
2022-12-15T12:38:17.032Z,82.70
2022-12-15T12:40:34.371Z,82.93
2022-12-15T12:42:51.356Z,82.83
2022-12-15T12:45:08.320Z,82.10
2022-12-15T12:47:25.597Z,82.12
2022-12-15T12:49:43.628Z,82.25
2022-12-15T12:52:00.972Z,81.96
2022-12-15T12:54:18.302Z,82.52
2022-12-15T12:56:36.254Z,82.73
2022-12-15T12:58:53.346Z,82.95
2022-12-15T13:01:10.542Z,83.18
2022-12-15T13:03:27.707Z,82.59
2022-12-15T13:05:44.706Z,82.95
2022-12-15T13:08:02.490Z,81.71
2022-12-15T13:10:20.803Z,82.36
2022-12-15T13:12:53.887Z,82.77
2022-12-15T13:15:12.334Z,83.28
2022-12-15T13:17:30.018Z,83.32
2022-12-15T13:19:52.108Z,83.25
2022-12-15T13:22:11.666Z,83.27
2022-12-15T13:24:28.951Z,83.28
2022-12-15T13:26:48.631Z,83.16
2022-12-15T13:29:05.894Z,83.24
2022-12-15T13:31:23.296Z,82.92
2022-12-15T13:33:40.720Z,83.14
2022-12-15T13:35:57.734Z,83.29
2022-12-15T13:38:17.246Z,83.05
2022-12-15T13:40:34.272Z,83.57
2022-12-15T13:42:58.075Z,83.63
2022-12-15T13:45:15.569Z,84.11
2022-12-15T13:47:32.891Z,84.40
2022-12-15T13:49:54.465Z,84.20
2022-12-15T13:52:16.282Z,84.51
2022-12-15T13:54:33.219Z,84.05
2022-12-15T13:56:50.862Z,84.03
2022-12-15T13:59:08.252Z,83.96
2022-12-15T14:01:30.159Z,83.77
2022-12-15T14:03:49.269Z,85.23
2022-12-15T14:06:08.207Z,84.28
2022-12-15T14:08:25.262Z,84.40
2022-12-15T14:10:42.610Z,84.23
2022-12-15T14:13:00.908Z,84.75
2022-12-15T14:15:17.881Z,84.56
2022-12-15T14:17:35.204Z,85.04
2022-12-15T14:19:52.511Z,84.29
2022-12-15T14:22:09.821Z,84.61
2022-12-15T14:24:42.266Z,84.73
2022-12-15T14:26:59.207Z,84.17
2022-12-15T14:29:16.278Z,84.54
2022-12-15T14:31:33.466Z,84.85
2022-12-15T14:33:50.921Z,84.86
2022-12-15T14:36:08.196Z,84.66
2022-12-15T14:38:25.897Z,84.88
2022-12-15T14:40:43.170Z,85.03
2022-12-15T14:43:00.568Z,84.65
2022-12-15T14:45:17.958Z,85.05
2022-12-15T14:47:35.947Z,84.61
2022-12-15T14:49:54.263Z,84.45
2022-12-15T14:52:12.312Z,84.67
2022-12-15T14:54:29.385Z,84.51
2022-12-15T14:56:46.738Z,84.17
2022-12-15T14:59:03.940Z,84.21
2022-12-15T15:01:21.264Z,84.19
2022-12-15T15:03:11.090Z,87.48
2022-12-15T15:03:38.376Z,84.26
2022-12-15T15:05:55.942Z,84.24
2022-12-15T15:08:13.329Z,84.54
2022-12-15T15:10:30.718Z,83.89
2022-12-15T15:12:47.679Z,83.94
2022-12-15T15:15:05.539Z,84.39
2022-12-15T15:17:22.878Z,84.71
2022-12-15T15:19:40.227Z,85.03
2022-12-15T15:21:57.532Z,85.05
2022-12-15T15:24:14.515Z,85.52
2022-12-15T15:26:31.535Z,85.07
2022-12-15T15:28:49.852Z,85.29
2022-12-15T15:31:06.876Z,84.86
2022-12-15T15:33:23.864Z,84.75
2022-12-15T15:35:40.760Z,84.68
2022-12-15T15:37:57.851Z,84.69
2022-12-15T15:40:14.788Z,84.51
2022-12-15T15:42:32.845Z,84.90
2022-12-15T15:44:50.026Z,84.58
2022-12-15T15:47:06.933Z,84.39
2022-12-15T15:49:23.973Z,84.17
2022-12-15T15:51:41.947Z,84.09
2022-12-15T15:53:59.243Z,84.08
2022-12-15T15:56:16.578Z,84.09
2022-12-15T15:58:34.071Z,84.12
2022-12-15T16:00:51.598Z,84.06
2022-12-15T16:03:09.138Z,84.12
2022-12-15T16:05:26.334Z,83.75
2022-12-15T16:07:43.694Z,83.38
2022-12-15T16:10:00.968Z,83.77
2022-12-15T16:12:18.960Z,84.00
2022-12-15T16:14:36.202Z,84.00
2022-12-15T16:16:53.206Z,83.94
2022-12-15T16:19:10.434Z,83.99
2022-12-15T16:21:27.678Z,83.80
2022-12-15T16:23:44.936Z,84.00
2022-12-15T16:26:02.252Z,83.98
2022-12-15T16:28:20.229Z,84.03
2022-12-15T16:30:37.177Z,83.84
2022-12-15T16:32:54.207Z,83.88
2022-12-15T16:35:12.520Z,83.77
2022-12-15T16:37:32.408Z,83.84
2022-12-15T16:39:51.801Z,83.67
2022-12-15T16:42:09.083Z,83.76
2022-12-15T16:44:26.104Z,83.54
2022-12-15T16:46:43.168Z,83.37
2022-12-15T16:49:00.508Z,83.34
2022-12-15T16:51:17.620Z,83.43
2022-12-15T16:53:34.858Z,83.49
2022-12-15T16:55:51.743Z,83.33
2022-12-15T16:58:08.747Z,83.13
2022-12-15T17:00:26.064Z,82.82
2022-12-15T17:02:43.232Z,83.14
2022-12-15T17:05:00.298Z,83.01
2022-12-15T17:07:20.385Z,82.84
2022-12-15T17:09:38.262Z,82.60
2022-12-15T17:11:55.491Z,82.92
2022-12-15T17:14:12.483Z,82.72
2022-12-15T17:16:29.580Z,82.86
2022-12-15T17:18:46.596Z,82.77
2022-12-15T17:21:03.525Z,82.80
2022-12-15T17:23:20.574Z,82.20
2022-12-15T17:26:17.999Z,82.45
2022-12-15T17:28:14.738Z,82.11
2022-12-15T17:30:31.763Z,82.12
2022-12-15T17:32:49.090Z,82.27
2022-12-15T17:35:06.333Z,82.33
2022-12-15T17:37:23.421Z,82.26
2022-12-15T17:39:40.513Z,81.94
2022-12-15T17:42:00.616Z,81.93
2022-12-15T17:44:36.235Z,81.95
2022-12-15T17:46:54.184Z,82.02
2022-12-15T17:49:11.229Z,81.80
2022-12-15T17:51:28.152Z,82.19
2022-12-15T17:53:45.104Z,82.29
2022-12-15T17:56:02.016Z,82.21
2022-12-15T17:58:18.965Z,82.23
2022-12-15T18:00:36.013Z,82.16
2022-12-15T18:02:54.005Z,81.94
2022-12-15T18:05:11.956Z,82.01
2022-12-15T18:07:28.899Z,82.32
2022-12-15T18:09:47.112Z,81.40
2022-12-15T18:12:03.979Z,81.58
2022-12-15T18:14:21.083Z,81.88
2022-12-15T18:16:38.117Z,81.51
2022-12-15T18:18:55.154Z,81.35
2022-12-15T18:21:12.395Z,81.20
2022-12-15T18:23:29.935Z,81.39
2022-12-15T18:25:47.155Z,81.27
2022-12-15T18:28:04.030Z,81.99
2022-12-15T18:30:21.011Z,81.64
2022-12-15T18:32:37.958Z,81.61
2022-12-15T18:34:55.225Z,81.48
2022-12-15T18:37:12.498Z,81.70
2022-12-15T18:39:29.776Z,81.66
2022-12-15T18:41:47.116Z,81.09
2022-12-15T18:44:04.175Z,81.19
2022-12-15T18:46:22.401Z,81.51
2022-12-15T18:48:39.714Z,81.66
2022-12-15T18:50:57.051Z,81.88
2022-12-15T18:53:14.234Z,81.58
2022-12-15T18:55:31.484Z,81.28
2022-12-15T18:57:49.487Z,81.54
2022-12-15T19:00:06.408Z,81.09
2022-12-15T19:02:23.493Z,81.65
2022-12-15T19:04:40.502Z,81.77
2022-12-15T19:06:57.762Z,81.72
2022-12-15T19:09:14.707Z,81.62
2022-12-15T19:11:32.524Z,81.61
2022-12-15T19:13:49.411Z,81.54
2022-12-15T19:16:06.518Z,81.57
2022-12-15T19:18:23.850Z,81.51
2022-12-15T19:20:41.147Z,81.82
2022-12-15T19:22:58.168Z,81.50
2022-12-15T19:25:15.014Z,81.53
2022-12-15T19:27:33.004Z,81.64
2022-12-15T19:29:50.256Z,81.99
2022-12-15T19:32:07.288Z,81.55
2022-12-15T19:34:24.227Z,81.53
2022-12-15T19:36:41.486Z,82.34
2022-12-15T19:38:58.520Z,81.99
2022-12-15T19:41:16.772Z,82.19
2022-12-15T19:43:33.924Z,82.18
2022-12-15T19:45:51.172Z,82.12
2022-12-15T19:48:08.104Z,82.05
2022-12-15T19:50:25.138Z,82.14
2022-12-15T19:52:42.139Z,82.14
2022-12-15T19:54:59.447Z,82.48
2022-12-15T19:57:16.451Z,82.31
2022-12-15T19:59:33.711Z,82.11
2022-12-15T20:01:50.860Z,82.03
2022-12-15T20:04:08.982Z,81.88
2022-12-15T20:06:26.921Z,82.16
2022-12-15T20:08:43.912Z,82.13
2022-12-15T20:11:01.171Z,81.57
2022-12-15T20:13:18.254Z,81.73
2022-12-15T20:15:35.219Z,81.90
2022-12-15T20:17:52.207Z,81.78
2022-12-15T20:20:11.550Z,82.82
2022-12-15T20:22:28.673Z,82.47
2022-12-15T20:24:45.596Z,82.64
2022-12-15T20:27:04.998Z,82.15
2022-12-15T20:29:25.745Z,82.25
2022-12-15T20:31:43.113Z,81.89
2022-12-15T20:34:00.450Z,82.17
2022-12-15T20:36:17.545Z,82.39
2022-12-15T20:38:35.878Z,82.17
2022-12-15T20:40:52.759Z,82.83
2022-12-15T20:43:09.739Z,82.58
2022-12-15T20:45:26.720Z,82.49
2022-12-15T20:47:43.759Z,82.19
2022-12-15T20:50:00.804Z,82.48
2022-12-15T20:52:18.020Z,82.50
2022-12-15T20:54:35.265Z,82.32
2022-12-15T20:56:52.506Z,82.22
2022-12-15T20:59:09.469Z,82.04
2022-12-15T21:01:26.607Z,81.71
2022-12-15T21:03:43.582Z,82.16
2022-12-15T21:06:00.579Z,82.08
2022-12-15T21:08:17.925Z,82.01
2022-12-15T21:10:35.929Z,81.73
2022-12-15T21:12:52.868Z,81.55
2022-12-15T21:15:09.785Z,81.65
2022-12-15T21:17:27.023Z,81.53
2022-12-15T21:19:44.018Z,81.09
2022-12-15T21:22:00.933Z,81.13
2022-12-15T21:24:17.889Z,81.32
2022-12-15T21:26:35.835Z,81.20
2022-12-15T21:28:52.751Z,81.49
2022-12-15T21:31:10.524Z,81.07
2022-12-15T21:33:27.473Z,81.67
2022-12-15T21:35:44.518Z,81.27
2022-12-15T21:38:01.442Z,81.40
2022-12-15T21:40:18.398Z,81.21
2022-12-15T21:42:35.442Z,81.15
2022-12-15T21:44:52.776Z,81.01
2022-12-15T21:47:09.775Z,81.29
2022-12-15T21:49:26.707Z,81.15
2022-12-15T21:51:43.685Z,80.71
2022-12-15T21:54:00.959Z,80.55
2022-12-15T21:56:18.915Z,80.89
2022-12-15T21:58:36.084Z,80.67
2022-12-15T22:00:53.142Z,80.72
2022-12-15T22:03:11.597Z,80.97
2022-12-15T22:05:28.510Z,81.21
2022-12-15T22:07:45.507Z,81.20
2022-12-15T22:10:02.456Z,81.00
2022-12-15T22:12:19.438Z,81.42
2022-12-15T22:14:37.429Z,80.91
2022-12-15T22:16:54.436Z,81.00
2022-12-15T22:19:11.867Z,80.89
2022-12-15T22:21:29.139Z,80.95
2022-12-15T22:23:46.206Z,80.71
2022-12-15T22:26:03.117Z,80.57
2022-12-15T22:28:20.107Z,80.68
2022-12-15T22:30:37.061Z,80.99
2022-12-15T22:32:54.285Z,80.32
2022-12-15T22:35:11.525Z,80.86
2022-12-15T22:37:28.481Z,80.65
2022-12-15T22:39:45.529Z,80.63
2022-12-15T22:42:02.530Z,81.45
2022-12-15T22:44:19.515Z,80.86
2022-12-15T22:46:36.603Z,80.52
2022-12-15T22:48:54.778Z,80.94
2022-12-15T22:51:11.900Z,80.68
2022-12-15T22:53:29.225Z,80.74
2022-12-15T22:55:47.236Z,80.49
2022-12-15T22:58:04.203Z,80.97
2022-12-15T23:00:21.130Z,80.40
2022-12-15T23:02:38.531Z,80.37
2022-12-15T23:04:55.678Z,80.77
2022-12-15T23:07:12.656Z,80.54
2022-12-15T23:09:29.704Z,80.39
2022-12-15T23:11:46.958Z,80.06
2022-12-15T23:14:04.009Z,80.67
2022-12-15T23:16:21.413Z,80.49
2022-12-15T23:18:38.974Z,80.74
2022-12-15T23:20:56.489Z,81.03
2022-12-15T23:23:13.446Z,80.81
2022-12-15T23:25:30.922Z,80.91
2022-12-15T23:27:47.851Z,80.76
2022-12-15T23:30:05.127Z,81.48
2022-12-15T23:32:22.046Z,81.45
2022-12-15T23:34:39.063Z,81.42
2022-12-15T23:36:56.142Z,81.30
2022-12-15T23:39:14.396Z,81.42
2022-12-15T23:41:31.379Z,82.00
2022-12-15T23:43:49.677Z,81.32
2022-12-15T23:46:07.082Z,81.62
2022-12-15T23:48:25.344Z,80.92
2022-12-15T23:50:42.229Z,80.79
2022-12-15T23:52:59.171Z,81.33
2022-12-15T23:55:16.584Z,81.32
2022-12-15T23:57:33.572Z,80.71
2022-12-15T23:59:50.694Z,80.63
